Decoded Metar for KBFD (BRADFORD in PA, USA) (IATA:BFD) | Meteo·Mobile Aviation Weather
aviador You're here:

KBFD Decoded Metar

BRADFORD in PA, USA
Report Time2018-12-14 12:10:00
UTC Time2018-12-14 12:20:31
Flight Rules mvfr MVFR
Wind150° at 10 kt
W.Decomp.*RWY 14: 9.3 kt HW 3.6 kt RCW
RWY 23: 3.6 kt HW 9.3 kt LCW
W.Rank150° ranks 2
Current wind is above 150° avg. (7.1)
Visibility6437 m
Phenomena:Mist
Clouds:Scattered 007 Hf
Expected CloudBase > 800 ft AGL from Temp-Dew spread
CeilingNone
Temp01°C (ISA -10)
Dew Point-1°C (87% RH)
AAT-4.7°C
QNH1024 hPa
Density Alt650 ft
Elevation2,123 ft
Report Wrong Elevation
Raw Report
KBFD 141210Z AUTO 15010KT 4SM BR SCT007 01/M01 A3024 RMK AO2
T00061006=

Extra information for KBFD:More info

Metar Taf Metar & Taf Last 4 Metars F.Rules Stats Wind Profile Meteogram Temp Stats Airport Information Weather charts Add Link Nearby VenuesMetar ALERT Operation Metar Decoded Social comments

AIRNAV info for KBFD